sensor_id;sensor_type;location;lat;lon;timestamp;temperature;humidity
69598;SHT31;70000;51.176;-115.568;2023-05-27T00:01:42;21.18;30.78
69598;SHT31;70000;51.176;-115.568;2023-05-27T00:04:17;21.24;30.02
69598;SHT31;70000;51.176;-115.568;2023-05-27T00:06:47;21.30;29.83
69598;SHT31;70000;51.176;-115.568;2023-05-27T00:09:17;21.34;30.08
69598;SHT31;70000;51.176;-115.568;2023-05-27T00:11:46;21.35;30.37
69598;SHT31;70000;51.176;-115.568;2023-05-27T00:14:18;21.38;30.49
69598;SHT31;70000;51.176;-115.568;2023-05-27T00:16:50;21.41;30.69
69598;SHT31;70000;51.176;-115.568;2023-05-27T00:19:20;21.43;30.77
69598;SHT31;70000;51.176;-115.568;2023-05-27T00:21:54;21.45;30.74
69598;SHT31;70000;51.176;-115.568;2023-05-27T00:24:24;21.45;30.45
69598;SHT31;70000;51.176;-115.568;2023-05-27T00:26:53;21.44;30.46
69598;SHT31;70000;51.176;-115.568;2023-05-27T00:29:22;21.43;30.26
69598;SHT31;70000;51.176;-115.568;2023-05-27T00:31:55;21.43;30.23
69598;SHT31;70000;51.176;-115.568;2023-05-27T00:34:24;21.44;30.24
69598;SHT31;70000;51.176;-115.568;2023-05-27T00:36:53;21.48;30.25
69598;SHT31;70000;51.176;-115.568;2023-05-27T00:39:23;21.51;30.32
69598;SHT31;70000;51.176;-115.568;2023-05-27T00:41:53;21.55;30.19
69598;SHT31;70000;51.176;-115.568;2023-05-27T00:44:22;21.55;30.01
69598;SHT31;70000;51.176;-115.568;2023-05-27T00:46:54;21.54;30.07
69598;SHT31;70000;51.176;-115.568;2023-05-27T00:49:37;21.52;30.27
69598;SHT31;70000;51.176;-115.568;2023-05-27T00:52:07;21.50;30.27
69598;SHT31;70000;51.176;-115.568;2023-05-27T00:54:40;21.49;30.67
69598;SHT31;70000;51.176;-115.568;2023-05-27T00:57:10;21.46;30.93
69598;SHT31;70000;51.176;-115.568;2023-05-27T00:59:41;21.46;30.91
69598;SHT31;70000;51.176;-115.568;2023-05-27T01:02:10;21.44;30.88
69598;SHT31;70000;51.176;-115.568;2023-05-27T01:04:39;21.41;30.74
69598;SHT31;70000;51.176;-115.568;2023-05-27T01:07:22;21.38;30.95
69598;SHT31;70000;51.176;-115.568;2023-05-27T01:10:10;21.35;30.97
69598;SHT31;70000;51.176;-115.568;2023-05-27T01:13:01;21.32;31.25
69598;SHT31;70000;51.176;-115.568;2023-05-27T01:16:02;21.28;31.60
69598;SHT31;70000;51.176;-115.568;2023-05-27T01:18:40;21.25;31.51
69598;SHT31;70000;51.176;-115.568;2023-05-27T01:21:15;21.23;31.57
69598;SHT31;70000;51.176;-115.568;2023-05-27T01:23:50;21.21;31.59
69598;SHT31;70000;51.176;-115.568;2023-05-27T01:26:19;21.16;31.78
69598;SHT31;70000;51.176;-115.568;2023-05-27T01:28:48;21.15;31.96
69598;SHT31;70000;51.176;-115.568;2023-05-27T01:31:19;21.10;32.14
69598;SHT31;70000;51.176;-115.568;2023-05-27T01:34:13;21.08;32.31
69598;SHT31;70000;51.176;-115.568;2023-05-27T01:36:50;21.04;32.27
69598;SHT31;70000;51.176;-115.568;2023-05-27T01:39:36;20.99;32.61
69598;SHT31;70000;51.176;-115.568;2023-05-27T01:42:07;20.95;32.38
69598;SHT31;70000;51.176;-115.568;2023-05-27T01:44:37;20.90;32.53
69598;SHT31;70000;51.176;-115.568;2023-05-27T01:47:07;20.85;32.68
69598;SHT31;70000;51.176;-115.568;2023-05-27T01:49:40;20.82;32.66
69598;SHT31;70000;51.176;-115.568;2023-05-27T01:52:09;20.78;32.69
69598;SHT31;70000;51.176;-115.568;2023-05-27T01:54:38;20.73;32.51
69598;SHT31;70000;51.176;-115.568;2023-05-27T01:57:08;20.69;32.74
69598;SHT31;70000;51.176;-115.568;2023-05-27T01:59:40;20.67;32.69
69598;SHT31;70000;51.176;-115.568;2023-05-27T02:02:09;20.65;32.96
69598;SHT31;70000;51.176;-115.568;2023-05-27T02:04:38;20.63;33.34
69598;SHT31;70000;51.176;-115.568;2023-05-27T02:07:07;20.59;33.25
69598;SHT31;70000;51.176;-115.568;2023-05-27T02:09:36;20.56;33.94
69598;SHT31;70000;51.176;-115.568;2023-05-27T02:12:06;20.54;33.75
69598;SHT31;70000;51.176;-115.568;2023-05-27T02:14:37;20.51;33.41
69598;SHT31;70000;51.176;-115.568;2023-05-27T02:17:06;20.46;33.28
69598;SHT31;70000;51.176;-115.568;2023-05-27T02:19:35;20.41;33.43
69598;SHT31;70000;51.176;-115.568;2023-05-27T02:22:04;20.37;33.44
69598;SHT31;70000;51.176;-115.568;2023-05-27T02:24:33;20.32;33.58
69598;SHT31;70000;51.176;-115.568;2023-05-27T02:27:03;20.26;33.58
69598;SHT31;70000;51.176;-115.568;2023-05-27T02:29:33;20.22;33.78
69598;SHT31;70000;51.176;-115.568;2023-05-27T02:32:02;20.17;33.89
69598;SHT31;70000;51.176;-115.568;2023-05-27T02:34:31;20.14;33.97
69598;SHT31;70000;51.176;-115.568;2023-05-27T02:37:07;20.09;34.15
69598;SHT31;70000;51.176;-115.568;2023-05-27T02:39:36;20.06;34.49
69598;SHT31;70000;51.176;-115.568;2023-05-27T02:42:08;20.02;34.40
69598;SHT31;70000;51.176;-115.568;2023-05-27T02:44:38;19.99;33.99
69598;SHT31;70000;51.176;-115.568;2023-05-27T02:47:10;19.96;33.94
69598;SHT31;70000;51.176;-115.568;2023-05-27T02:49:39;19.91;34.15
69598;SHT31;70000;51.176;-115.568;2023-05-27T02:52:08;19.87;33.97
69598;SHT31;70000;51.176;-115.568;2023-05-27T02:54:37;19.83;34.18
69598;SHT31;70000;51.176;-115.568;2023-05-27T02:57:06;19.80;34.17
69598;SHT31;70000;51.176;-115.568;2023-05-27T02:59:43;19.76;34.16
69598;SHT31;70000;51.176;-115.568;2023-05-27T03:02:12;19.72;33.71
69598;SHT31;70000;51.176;-115.568;2023-05-27T03:04:41;19.67;33.55
69598;SHT31;70000;51.176;-115.568;2023-05-27T03:07:11;19.62;33.89
69598;SHT31;70000;51.176;-115.568;2023-05-27T03:09:40;19.57;33.81
69598;SHT31;70000;51.176;-115.568;2023-05-27T03:12:09;19.49;33.55
69598;SHT31;70000;51.176;-115.568;2023-05-27T03:14:41;19.43;33.71
69598;SHT31;70000;51.176;-115.568;2023-05-27T03:17:11;19.37;33.78
69598;SHT31;70000;51.176;-115.568;2023-05-27T03:19:40;19.30;34.32
69598;SHT31;70000;51.176;-115.568;2023-05-27T03:22:09;19.26;35.15
69598;SHT31;70000;51.176;-115.568;2023-05-27T03:24:39;19.22;35.65
69598;SHT31;70000;51.176;-115.568;2023-05-27T03:27:08;19.16;35.70
69598;SHT31;70000;51.176;-115.568;2023-05-27T03:29:37;19.10;36.25
69598;SHT31;70000;51.176;-115.568;2023-05-27T03:32:06;19.04;36.18
69598;SHT31;70000;51.176;-115.568;2023-05-27T03:34:35;18.96;35.93
69598;SHT31;70000;51.176;-115.568;2023-05-27T03:37:04;18.89;36.42
69598;SHT31;70000;51.176;-115.568;2023-05-27T03:39:36;18.83;37.16
69598;SHT31;70000;51.176;-115.568;2023-05-27T03:42:05;18.76;37.87
69598;SHT31;70000;51.176;-115.568;2023-05-27T03:44:35;18.70;38.23
69598;SHT31;70000;51.176;-115.568;2023-05-27T03:47:04;18.62;38.34
69598;SHT31;70000;51.176;-115.568;2023-05-27T03:49:37;18.51;38.21
69598;SHT31;70000;51.176;-115.568;2023-05-27T03:52:29;18.39;38.30
69598;SHT31;70000;51.176;-115.568;2023-05-27T03:54:58;18.31;38.28
69598;SHT31;70000;51.176;-115.568;2023-05-27T03:57:27;18.25;38.24
69598;SHT31;70000;51.176;-115.568;2023-05-27T03:59:59;18.15;38.53
69598;SHT31;70000;51.176;-115.568;2023-05-27T04:02:42;18.05;38.98
69598;SHT31;70000;51.176;-115.568;2023-05-27T04:05:15;17.97;39.11
69598;SHT31;70000;51.176;-115.568;2023-05-27T04:07:50;17.89;39.32
69598;SHT31;70000;51.176;-115.568;2023-05-27T04:10:22;17.81;39.21
69598;SHT31;70000;51.176;-115.568;2023-05-27T04:12:54;17.72;39.46
69598;SHT31;70000;51.176;-115.568;2023-05-27T04:15:24;17.65;39.75
69598;SHT31;70000;51.176;-115.568;2023-05-27T04:17:56;17.57;39.82
69598;SHT31;70000;51.176;-115.568;2023-05-27T04:20:33;17.49;40.18
69598;SHT31;70000;51.176;-115.568;2023-05-27T04:23:12;17.41;40.29
69598;SHT31;70000;51.176;-115.568;2023-05-27T04:25:44;17.30;40.47
69598;SHT31;70000;51.176;-115.568;2023-05-27T04:28:19;17.22;40.73
69598;SHT31;70000;51.176;-115.568;2023-05-27T04:30:49;17.13;41.06
69598;SHT31;70000;51.176;-115.568;2023-05-27T04:33:21;17.04;40.76
69598;SHT31;70000;51.176;-115.568;2023-05-27T04:35:56;16.96;41.13
69598;SHT31;70000;51.176;-115.568;2023-05-27T04:38:25;16.88;41.54
69598;SHT31;70000;51.176;-115.568;2023-05-27T04:40:54;16.80;42.00
69598;SHT31;70000;51.176;-115.568;2023-05-27T04:43:23;16.74;42.07
69598;SHT31;70000;51.176;-115.568;2023-05-27T04:45:54;16.69;42.09
69598;SHT31;70000;51.176;-115.568;2023-05-27T04:48:27;16.61;42.03
69598;SHT31;70000;51.176;-115.568;2023-05-27T04:50:56;16.52;42.30
69598;SHT31;70000;51.176;-115.568;2023-05-27T04:53:25;16.43;42.29
69598;SHT31;70000;51.176;-115.568;2023-05-27T04:55:54;16.36;42.66
69598;SHT31;70000;51.176;-115.568;2023-05-27T04:58:23;16.30;42.86
69598;SHT31;70000;51.176;-115.568;2023-05-27T05:00:53;16.26;42.96
69598;SHT31;70000;51.176;-115.568;2023-05-27T05:03:24;16.18;42.89
69598;SHT31;70000;51.176;-115.568;2023-05-27T05:06:14;16.11;42.70
69598;SHT31;70000;51.176;-115.568;2023-05-27T05:08:43;16.06;43.07
69598;SHT31;70000;51.176;-115.568;2023-05-27T05:11:12;16.01;43.26
69598;SHT31;70000;51.176;-115.568;2023-05-27T05:13:42;15.94;43.48
69598;SHT31;70000;51.176;-115.568;2023-05-27T05:16:14;15.86;43.50
69598;SHT31;70000;51.176;-115.568;2023-05-27T05:18:44;15.81;43.78
69598;SHT31;70000;51.176;-115.568;2023-05-27T05:21:13;15.75;43.87
69598;SHT31;70000;51.176;-115.568;2023-05-27T05:23:42;15.71;43.95
69598;SHT31;70000;51.176;-115.568;2023-05-27T05:26:11;15.66;44.41
69598;SHT31;70000;51.176;-115.568;2023-05-27T05:28:40;15.60;44.54
69598;SHT31;70000;51.176;-115.568;2023-05-27T05:31:09;15.55;44.41
69598;SHT31;70000;51.176;-115.568;2023-05-27T05:33:38;15.51;44.56
69598;SHT31;70000;51.176;-115.568;2023-05-27T05:36:07;15.48;44.75
69598;SHT31;70000;51.176;-115.568;2023-05-27T05:38:37;15.44;44.91
69598;SHT31;70000;51.176;-115.568;2023-05-27T05:41:06;15.41;44.77
69598;SHT31;70000;51.176;-115.568;2023-05-27T05:43:35;15.37;44.99
69598;SHT31;70000;51.176;-115.568;2023-05-27T05:46:04;15.32;45.07
69598;SHT31;70000;51.176;-115.568;2023-05-27T05:48:34;15.26;45.01
69598;SHT31;70000;51.176;-115.568;2023-05-27T05:51:02;15.24;45.17
69598;SHT31;70000;51.176;-115.568;2023-05-27T05:53:34;15.21;45.24
69598;SHT31;70000;51.176;-115.568;2023-05-27T05:56:04;15.16;45.33
69598;SHT31;70000;51.176;-115.568;2023-05-27T05:58:33;15.13;45.59
69598;SHT31;70000;51.176;-115.568;2023-05-27T06:01:02;15.09;45.20
69598;SHT31;70000;51.176;-115.568;2023-05-27T06:03:32;15.06;45.45
69598;SHT31;70000;51.176;-115.568;2023-05-27T06:06:03;15.05;45.62
69598;SHT31;70000;51.176;-115.568;2023-05-27T06:08:33;15.01;45.40
69598;SHT31;70000;51.176;-115.568;2023-05-27T06:11:02;14.97;45.46
69598;SHT31;70000;51.176;-115.568;2023-05-27T06:13:31;14.93;45.56
69598;SHT31;70000;51.176;-115.568;2023-05-27T06:16:00;14.89;45.85
69598;SHT31;70000;51.176;-115.568;2023-05-27T06:18:29;14.85;45.95
69598;SHT31;70000;51.176;-115.568;2023-05-27T06:20:58;14.81;46.01
69598;SHT31;70000;51.176;-115.568;2023-05-27T06:23:27;14.78;46.07
69598;SHT31;70000;51.176;-115.568;2023-05-27T06:25:58;14.74;46.09
69598;SHT31;70000;51.176;-115.568;2023-05-27T06:28:27;14.71;45.89
69598;SHT31;70000;51.176;-115.568;2023-05-27T06:30:57;14.69;45.78
69598;SHT31;70000;51.176;-115.568;2023-05-27T06:33:26;14.65;45.97
69598;SHT31;70000;51.176;-115.568;2023-05-27T06:35:55;14.61;45.98
69598;SHT31;70000;51.176;-115.568;2023-05-27T06:38:24;14.54;46.07
69598;SHT31;70000;51.176;-115.568;2023-05-27T06:40:53;14.53;46.09
69598;SHT31;70000;51.176;-115.568;2023-05-27T06:43:22;14.50;46.03
69598;SHT31;70000;51.176;-115.568;2023-05-27T06:45:51;14.49;46.21
69598;SHT31;70000;51.176;-115.568;2023-05-27T06:48:30;14.45;46.19
69598;SHT31;70000;51.176;-115.568;2023-05-27T06:50:59;14.40;46.20
69598;SHT31;70000;51.176;-115.568;2023-05-27T06:53:29;14.36;46.35
69598;SHT31;70000;51.176;-115.568;2023-05-27T06:55:57;14.31;46.38
69598;SHT31;70000;51.176;-115.568;2023-05-27T06:58:30;14.27;46.40
69598;SHT31;70000;51.176;-115.568;2023-05-27T07:01:01;14.21;46.49
69598;SHT31;70000;51.176;-115.568;2023-05-27T07:03:30;14.16;46.57
69598;SHT31;70000;51.176;-115.568;2023-05-27T07:05:59;14.12;46.88
69598;SHT31;70000;51.176;-115.568;2023-05-27T07:08:28;14.04;47.07
69598;SHT31;70000;51.176;-115.568;2023-05-27T07:10:57;13.97;47.58
69598;SHT31;70000;51.176;-115.568;2023-05-27T07:13:27;13.89;47.88
69598;SHT31;70000;51.176;-115.568;2023-05-27T07:15:55;13.84;48.12
69598;SHT31;70000;51.176;-115.568;2023-05-27T07:18:25;13.79;48.11
69598;SHT31;70000;51.176;-115.568;2023-05-27T07:20:54;13.76;48.15
69598;SHT31;70000;51.176;-115.568;2023-05-27T07:23:23;13.73;48.05
69598;SHT31;70000;51.176;-115.568;2023-05-27T07:25:52;13.69;48.00
69598;SHT31;70000;51.176;-115.568;2023-05-27T07:28:21;13.63;47.98
69598;SHT31;70000;51.176;-115.568;2023-05-27T07:30:53;13.61;48.03
69598;SHT31;70000;51.176;-115.568;2023-05-27T07:33:32;13.57;48.08
69598;SHT31;70000;51.176;-115.568;2023-05-27T07:36:03;13.50;48.30
69598;SHT31;70000;51.176;-115.568;2023-05-27T07:38:33;13.43;48.23
69598;SHT31;70000;51.176;-115.568;2023-05-27T07:41:02;13.38;48.29
69598;SHT31;70000;51.176;-115.568;2023-05-27T07:43:32;13.31;48.41
69598;SHT31;70000;51.176;-115.568;2023-05-27T07:46:01;13.27;48.28
69598;SHT31;70000;51.176;-115.568;2023-05-27T07:48:33;13.15;48.30
69598;SHT31;70000;51.176;-115.568;2023-05-27T07:51:02;13.01;48.53
69598;SHT31;70000;51.176;-115.568;2023-05-27T07:53:31;12.98;49.16
69598;SHT31;70000;51.176;-115.568;2023-05-27T07:56:02;12.95;49.59
69598;SHT31;70000;51.176;-115.568;2023-05-27T07:58:31;12.92;49.78
69598;SHT31;70000;51.176;-115.568;2023-05-27T08:01:00;12.89;50.11
69598;SHT31;70000;51.176;-115.568;2023-05-27T08:03:29;12.84;50.29
69598;SHT31;70000;51.176;-115.568;2023-05-27T08:05:59;12.81;50.42
69598;SHT31;70000;51.176;-115.568;2023-05-27T08:08:28;12.75;50.58
69598;SHT31;70000;51.176;-115.568;2023-05-27T08:10:57;12.69;50.77
69598;SHT31;70000;51.176;-115.568;2023-05-27T08:13:26;12.66;50.64
69598;SHT31;70000;51.176;-115.568;2023-05-27T08:15:56;12.63;50.53
69598;SHT31;70000;51.176;-115.568;2023-05-27T08:18:28;12.61;50.45
69598;SHT31;70000;51.176;-115.568;2023-05-27T08:20:57;12.59;50.35
69598;SHT31;70000;51.176;-115.568;2023-05-27T08:23:26;12.55;50.27
69598;SHT31;70000;51.176;-115.568;2023-05-27T08:25:55;12.54;50.16
69598;SHT31;70000;51.176;-115.568;2023-05-27T08:28:25;12.53;50.18
69598;SHT31;70000;51.176;-115.568;2023-05-27T08:30:57;12.51;50.30
69598;SHT31;70000;51.176;-115.568;2023-05-27T08:33:29;12.48;50.58
69598;SHT31;70000;51.176;-115.568;2023-05-27T08:35:58;12.47;50.64
69598;SHT31;70000;51.176;-115.568;2023-05-27T08:38:27;12.42;50.68
69598;SHT31;70000;51.176;-115.568;2023-05-27T08:40:56;12.38;50.77
69598;SHT31;70000;51.176;-115.568;2023-05-27T08:43:27;12.39;50.95
69598;SHT31;70000;51.176;-115.568;2023-05-27T08:45:57;12.41;51.03
69598;SHT31;70000;51.176;-115.568;2023-05-27T08:48:26;12.42;51.17
69598;SHT31;70000;51.176;-115.568;2023-05-27T08:50:55;12.40;50.96
69598;SHT31;70000;51.176;-115.568;2023-05-27T08:53:26;12.37;50.74
69598;SHT31;70000;51.176;-115.568;2023-05-27T08:55:56;12.30;50.64
69598;SHT31;70000;51.176;-115.568;2023-05-27T08:58:31;12.27;50.90
69598;SHT31;70000;51.176;-115.568;2023-05-27T09:01:01;12.27;51.02
69598;SHT31;70000;51.176;-115.568;2023-05-27T09:03:30;12.26;51.01
69598;SHT31;70000;51.176;-115.568;2023-05-27T09:06:00;12.27;50.99
69598;SHT31;70000;51.176;-115.568;2023-05-27T09:08:31;12.25;50.83
69598;SHT31;70000;51.176;-115.568;2023-05-27T09:11:23;12.23;51.06
69598;SHT31;70000;51.176;-115.568;2023-05-27T09:13:56;12.22;51.10
69598;SHT31;70000;51.176;-115.568;2023-05-27T09:16:25;12.20;51.03
69598;SHT31;70000;51.176;-115.568;2023-05-27T09:18:54;12.19;51.19
69598;SHT31;70000;51.176;-115.568;2023-05-27T09:21:26;12.18;51.13
69598;SHT31;70000;51.176;-115.568;2023-05-27T09:23:56;12.12;51.18
69598;SHT31;70000;51.176;-115.568;2023-05-27T09:26:28;12.10;51.01
69598;SHT31;70000;51.176;-115.568;2023-05-27T09:28:58;12.09;50.94
69598;SHT31;70000;51.176;-115.568;2023-05-27T09:31:30;12.08;50.92
69598;SHT31;70000;51.176;-115.568;2023-05-27T09:34:08;12.04;51.07
69598;SHT31;70000;51.176;-115.568;2023-05-27T09:36:48;11.99;50.89
69598;SHT31;70000;51.176;-115.568;2023-05-27T09:39:19;11.97;51.01
69598;SHT31;70000;51.176;-115.568;2023-05-27T09:41:53;11.95;50.93
69598;SHT31;70000;51.176;-115.568;2023-05-27T09:44:29;11.93;51.05
69598;SHT31;70000;51.176;-115.568;2023-05-27T09:47:09;11.91;51.18
69598;SHT31;70000;51.176;-115.568;2023-05-27T09:49:38;11.89;51.24
69598;SHT31;70000;51.176;-115.568;2023-05-27T09:52:09;11.87;51.45
69598;SHT31;70000;51.176;-115.568;2023-05-27T09:54:41;11.85;51.45
69598;SHT31;70000;51.176;-115.568;2023-05-27T09:57:12;11.80;51.37
69598;SHT31;70000;51.176;-115.568;2023-05-27T09:59:45;11.78;51.70
69598;SHT31;70000;51.176;-115.568;2023-05-27T10:02:16;11.76;51.83
69598;SHT31;70000;51.176;-115.568;2023-05-27T10:04:49;11.73;51.79
69598;SHT31;70000;51.176;-115.568;2023-05-27T10:07:19;11.70;51.91
69598;SHT31;70000;51.176;-115.568;2023-05-27T10:10:02;11.70;52.10
69598;SHT31;70000;51.176;-115.568;2023-05-27T10:12:34;11.69;52.02
69598;SHT31;70000;51.176;-115.568;2023-05-27T10:15:05;11.69;52.06
69598;SHT31;70000;51.176;-115.568;2023-05-27T10:20:39;11.65;52.06
69598;SHT31;70000;51.176;-115.568;2023-05-27T10:23:24;11.63;52.05
69598;SHT31;70000;51.176;-115.568;2023-05-27T10:26:05;11.60;51.99
69598;SHT31;70000;51.176;-115.568;2023-05-27T10:28:36;11.52;51.98
69598;SHT31;70000;51.176;-115.568;2023-05-27T10:31:11;11.52;52.22
69598;SHT31;70000;51.176;-115.568;2023-05-27T10:33:48;11.53;52.21
69598;SHT31;70000;51.176;-115.568;2023-05-27T10:36:27;11.52;52.26
69598;SHT31;70000;51.176;-115.568;2023-05-27T10:39:03;11.50;52.14
69598;SHT31;70000;51.176;-115.568;2023-05-27T10:41:49;11.46;52.20
69598;SHT31;70000;51.176;-115.568;2023-05-27T10:44:29;11.44;52.22
69598;SHT31;70000;51.176;-115.568;2023-05-27T10:47:12;11.40;52.37
69598;SHT31;70000;51.176;-115.568;2023-05-27T10:49:47;11.37;52.38
69598;SHT31;70000;51.176;-115.568;2023-05-27T10:52:17;11.37;52.55
69598;SHT31;70000;51.176;-115.568;2023-05-27T10:54:47;11.34;52.54
69598;SHT31;70000;51.176;-115.568;2023-05-27T10:57:30;11.32;52.66
69598;SHT31;70000;51.176;-115.568;2023-05-27T11:00:08;11.24;52.64
69598;SHT31;70000;51.176;-115.568;2023-05-27T11:02:48;11.23;52.85
69598;SHT31;70000;51.176;-115.568;2023-05-27T11:05:19;11.24;52.92
69598;SHT31;70000;51.176;-115.568;2023-05-27T11:07:55;11.23;52.88
69598;SHT31;70000;51.176;-115.568;2023-05-27T11:10:26;11.21;52.98
69598;SHT31;70000;51.176;-115.568;2023-05-27T11:12:59;11.19;53.07
69598;SHT31;70000;51.176;-115.568;2023-05-27T11:15:28;11.18;53.12
69598;SHT31;70000;51.176;-115.568;2023-05-27T11:18:04;11.16;53.13
69598;SHT31;70000;51.176;-115.568;2023-05-27T11:20:36;11.15;53.22
69598;SHT31;70000;51.176;-115.568;2023-05-27T11:23:06;11.13;53.26
69598;SHT31;70000;51.176;-115.568;2023-05-27T11:25:43;11.10;53.35
69598;SHT31;70000;51.176;-115.568;2023-05-27T11:28:13;11.09;53.45
69598;SHT31;70000;51.176;-115.568;2023-05-27T11:30:45;11.07;53.39
69598;SHT31;70000;51.176;-115.568;2023-05-27T11:33:29;11.04;53.43
69598;SHT31;70000;51.176;-115.568;2023-05-27T11:36:04;11.01;53.73
69598;SHT31;70000;51.176;-115.568;2023-05-27T11:41:22;10.99;53.98
69598;SHT31;70000;51.176;-115.568;2023-05-27T11:44:01;10.98;54.12
69598;SHT31;70000;51.176;-115.568;2023-05-27T11:46:35;10.96;53.94
69598;SHT31;70000;51.176;-115.568;2023-05-27T11:49:12;10.89;54.00
69598;SHT31;70000;51.176;-115.568;2023-05-27T11:51:44;10.88;54.11
69598;SHT31;70000;51.176;-115.568;2023-05-27T11:54:18;10.88;54.19
69598;SHT31;70000;51.176;-115.568;2023-05-27T11:56:55;10.88;54.23
69598;SHT31;70000;51.176;-115.568;2023-05-27T11:59:30;10.85;54.36
69598;SHT31;70000;51.176;-115.568;2023-05-27T12:02:02;10.84;54.30
69598;SHT31;70000;51.176;-115.568;2023-05-27T12:04:34;10.80;54.27
69598;SHT31;70000;51.176;-115.568;2023-05-27T12:07:03;10.79;54.39
69598;SHT31;70000;51.176;-115.568;2023-05-27T12:09:45;10.75;54.54
69598;SHT31;70000;51.176;-115.568;2023-05-27T12:12:18;10.73;54.64
69598;SHT31;70000;51.176;-115.568;2023-05-27T12:14:50;10.71;54.76
69598;SHT31;70000;51.176;-115.568;2023-05-27T12:17:19;10.67;54.89
69598;SHT31;70000;51.176;-115.568;2023-05-27T12:19:51;10.65;54.76
69598;SHT31;70000;51.176;-115.568;2023-05-27T12:22:20;10.62;54.72
69598;SHT31;70000;51.176;-115.568;2023-05-27T12:24:51;10.60;54.87
69598;SHT31;70000;51.176;-115.568;2023-05-27T12:27:20;10.59;55.01
69598;SHT31;70000;51.176;-115.568;2023-05-27T12:29:49;10.57;54.94
69598;SHT31;70000;51.176;-115.568;2023-05-27T12:32:18;10.55;54.92
69598;SHT31;70000;51.176;-115.568;2023-05-27T12:34:47;10.54;55.00
69598;SHT31;70000;51.176;-115.568;2023-05-27T12:37:19;10.53;55.05
69598;SHT31;70000;51.176;-115.568;2023-05-27T12:39:48;10.52;54.94
69598;SHT31;70000;51.176;-115.568;2023-05-27T12:42:19;10.51;54.82
69598;SHT31;70000;51.176;-115.568;2023-05-27T12:44:48;10.48;54.90
69598;SHT31;70000;51.176;-115.568;2023-05-27T12:47:16;10.47;55.00
69598;SHT31;70000;51.176;-115.568;2023-05-27T12:49:45;10.45;55.04
69598;SHT31;70000;51.176;-115.568;2023-05-27T12:52:14;10.45;55.23
69598;SHT31;70000;51.176;-115.568;2023-05-27T12:54:50;10.43;55.55
69598;SHT31;70000;51.176;-115.568;2023-05-27T12:57:19;10.39;55.79
69598;SHT31;70000;51.176;-115.568;2023-05-27T12:59:48;10.36;55.89
69598;SHT31;70000;51.176;-115.568;2023-05-27T13:02:18;10.33;55.93
69598;SHT31;70000;51.176;-115.568;2023-05-27T13:04:49;10.31;56.06
69598;SHT31;70000;51.176;-115.568;2023-05-27T13:07:19;10.31;56.03
69598;SHT31;70000;51.176;-115.568;2023-05-27T13:09:48;10.31;56.14
69598;SHT31;70000;51.176;-115.568;2023-05-27T13:12:20;10.32;56.33
69598;SHT31;70000;51.176;-115.568;2023-05-27T13:14:50;10.33;56.42
69598;SHT31;70000;51.176;-115.568;2023-05-27T13:17:28;10.35;56.46
69598;SHT31;70000;51.176;-115.568;2023-05-27T13:20:04;10.36;56.53
69598;SHT31;70000;51.176;-115.568;2023-05-27T13:22:34;10.36;56.52
69598;SHT31;70000;51.176;-115.568;2023-05-27T13:25:07;10.34;56.37
69598;SHT31;70000;51.176;-115.568;2023-05-27T13:27:38;10.32;56.46
69598;SHT31;70000;51.176;-115.568;2023-05-27T13:30:17;10.30;56.31
69598;SHT31;70000;51.176;-115.568;2023-05-27T13:32:52;10.30;56.23
69598;SHT31;70000;51.176;-115.568;2023-05-27T13:35:23;10.28;56.19
69598;SHT31;70000;51.176;-115.568;2023-05-27T13:37:58;10.29;56.50
69598;SHT31;70000;51.176;-115.568;2023-05-27T13:40:30;10.29;56.54
69598;SHT31;70000;51.176;-115.568;2023-05-27T13:43:15;10.30;56.60
69598;SHT31;70000;51.176;-115.568;2023-05-27T13:45:45;10.32;56.61
69598;SHT31;70000;51.176;-115.568;2023-05-27T13:48:14;10.32;56.55
69598;SHT31;70000;51.176;-115.568;2023-05-27T13:50:50;10.34;56.59
69598;SHT31;70000;51.176;-115.568;2023-05-27T13:53:31;10.33;56.86
69598;SHT31;70000;51.176;-115.568;2023-05-27T13:56:21;10.33;56.98
69598;SHT31;70000;51.176;-115.568;2023-05-27T13:58:51;10.35;57.06
69598;SHT31;70000;51.176;-115.568;2023-05-27T14:01:23;10.39;57.13
69598;SHT31;70000;51.176;-115.568;2023-05-27T14:03:55;10.42;57.09
69598;SHT31;70000;51.176;-115.568;2023-05-27T14:06:37;10.48;57.07
69598;SHT31;70000;51.176;-115.568;2023-05-27T14:09:06;10.53;57.06
69598;SHT31;70000;51.176;-115.568;2023-05-27T14:11:39;10.58;57.02
69598;SHT31;70000;51.176;-115.568;2023-05-27T14:14:11;10.62;56.66
69598;SHT31;70000;51.176;-115.568;2023-05-27T14:16:47;10.68;56.69
69598;SHT31;70000;51.176;-115.568;2023-05-27T14:19:17;10.74;56.58
69598;SHT31;70000;51.176;-115.568;2023-05-27T14:21:46;10.81;56.69
69598;SHT31;70000;51.176;-115.568;2023-05-27T14:24:16;10.86;56.39
69598;SHT31;70000;51.176;-115.568;2023-05-27T14:26:51;10.90;56.09
69598;SHT31;70000;51.176;-115.568;2023-05-27T14:29:28;10.95;56.19
69598;SHT31;70000;51.176;-115.568;2023-05-27T14:32:05;11.02;56.25
69598;SHT31;70000;51.176;-115.568;2023-05-27T14:34:35;11.08;56.20
69598;SHT31;70000;51.176;-115.568;2023-05-27T14:37:13;11.12;56.09
69598;SHT31;70000;51.176;-115.568;2023-05-27T14:39:42;11.18;55.92
69598;SHT31;70000;51.176;-115.568;2023-05-27T14:42:11;11.22;55.84
69598;SHT31;70000;51.176;-115.568;2023-05-27T14:44:40;11.27;55.66
69598;SHT31;70000;51.176;-115.568;2023-05-27T14:47:12;11.32;55.56
69598;SHT31;70000;51.176;-115.568;2023-05-27T14:49:43;11.38;55.33
69598;SHT31;70000;51.176;-115.568;2023-05-27T14:52:25;11.43;55.44
69598;SHT31;70000;51.176;-115.568;2023-05-27T14:54:55;11.48;55.36
69598;SHT31;70000;51.176;-115.568;2023-05-27T14:57:27;11.53;54.97
69598;SHT31;70000;51.176;-115.568;2023-05-27T14:59:56;11.60;54.48
69598;SHT31;70000;51.176;-115.568;2023-05-27T15:02:28;11.66;54.54
69598;SHT31;70000;51.176;-115.568;2023-05-27T15:04:57;11.72;54.32
69598;SHT31;70000;51.176;-115.568;2023-05-27T15:07:32;11.77;54.27
69598;SHT31;70000;51.176;-115.568;2023-05-27T15:10:02;11.82;54.26
69598;SHT31;70000;51.176;-115.568;2023-05-27T15:12:47;11.87;54.20
69598;SHT31;70000;51.176;-115.568;2023-05-27T15:15:19;11.95;53.92
69598;SHT31;70000;51.176;-115.568;2023-05-27T15:17:49;12.00;53.97
69598;SHT31;70000;51.176;-115.568;2023-05-27T15:20:21;12.04;53.92
69598;SHT31;70000;51.176;-115.568;2023-05-27T15:22:59;12.10;53.83